Bei Facebook empfehlenBei Twitter postenGoogle plusPinterest

Das Wetter im Erzgebirge am 06.08.2017

Wetter und Klima am 06.08.2017 Holzhau im Erzgebirge (630m ü.NN)
Letzte gemessene Temperatur und Uhrzeit der Messung23:45:00 Uhr8.10 °C
Temperatur (Maximum / Höchstwert) und Uhrzeit der Messung16:00:00 Uhr21.30 °C
Temperatur (Minimum / Tiefstwert) und Uhrzeit der Messung23:45:008.10 °C
Errechneter Absolutwert der Temperaturschwankungen zwischen Tmin und Tmax des Tages13.20 K
Errechnete Tagesmitteltemperatur15.69375 °C
Gesamt - Niederschlag des Tages (in flüssiger Form)0.00 Liter / m²
Luftdruck (Maximum / Höchstwert) und Zeitpunkt der Messung22:45:00 Uhr1020.10 hPa
Luftdruck (Minimum / Tiefstwert) und Zeitpunkt der Messung00:15:00 Uhr1013.90 hPa
Errechneter Absolutwert der Luftdruckschwankungen des Tages6.20 hPa
Höchste gemessene Windgeschwindigkeit und Uhrzeit der Messung17:00:00 Uhr40.32 km/h
Errechnete Windhäufigkeit in Relation zu den Messwerten des Tages4.16667 %
Niedrigste Windkühle (Windchill) und Zeitpunkt der Messung23:45:00 Uhr8.10 °C
Taupunkt (Maximum / Höchstwert) und Uhrzeit der Messung02:30:00 Uhr13.80 °C
Taupunkt (Minimum / Tiefstwert) und Uhrzeit der Messung23:30:006.00 °C
Anzahl der automatisch eingelesenen Messwerte 96

Detaillierte Wetter- und Klima- Messwerte für den 06.08.2017 in Holzhau im Erzgebirge (630m ü.NN)
ZeitTemperaturLuftdruckRel. LuftfeuchteWindWindrichtungWindchillTaupunktNiederschlag l/m²
23:45:008.10 °C1019.90 hPa87.00 %6.10 °C 
23:30:008.20 °C1019.90 hPa86.00 %6.00 °C 
23:15:008.40 °C1020.00 hPa85.00 %6.00 °C 
23:00:008.60 °C1020.00 hPa84.00 %6.10 °C 
22:45:008.90 °C1020.10 hPa83.00 %6.20 °C 
22:30:009.50 °C1020.00 hPa82.00 %6.60 °C 
22:15:0010.10 °C1020.00 hPa82.00 %7.20 °C 
22:00:0010.50 °C1019.80 hPa81.00 %7.40 °C 
21:45:0011.10 °C1019.70 hPa79.00 %7.60 °C 
21:30:0011.80 °C1020.00 hPa78.00 %8.10 °C 
21:15:0012.40 °C1019.60 hPa77.00 %8.50 °C 
21:00:0013.10 °C1019.60 hPa75.00 %8.80 °C 
20:45:0013.80 °C1019.60 hPa73.00 %9.00 °C 
20:30:0014.40 °C1019.50 hPa72.00 %9.40 °C 
20:15:0015.00 °C1019.30 hPa71.00 %9.80 °C 
20:00:0015.40 °C1019.30 hPa69.00 %9.70 °C 
19:45:0015.90 °C1019.20 hPa68.00 %10.00 °C 
19:30:0016.40 °C1019.30 hPa65.00 %9.80 °C 
19:15:0016.90 °C1019.30 hPa63.00 %9.80 °C 
19:00:0017.40 °C1019.30 hPa61.00 %9.80 °C 
18:45:0017.70 °C1019.20 hPa59.00 %9.60 °C 
18:30:0018.10 °C1019.20 hPa57.00 %9.50 °C 
18:15:0018.60 °C1019.40 hPa56.00 %9.70 °C 
18:00:0019.40 °C1019.50 hPa54.00 %9.90 °C 
17:45:0020.10 °C1019.50 hPa53.00 %10.20 °C 
17:30:0020.60 °C1019.40 hPa52.00 %10.40 °C 
17:15:0021.20 °C1019.20 hPa53.00 %11.20 °C 
17:00:0021.10 °C1019.30 hPa54.00 %40.32 km/hNO21.80 °C11.40 °C 
16:45:0020.70 °C1019.10 hPa54.00 %11.10 °C 
16:30:0020.60 °C1019.10 hPa53.00 %10.70 °C 
16:15:0020.90 °C1019.20 hPa55.00 %11.50 °C 
16:00:0021.30 °C1019.40 hPa54.00 %11.60 °C 
15:45:0021.20 °C1019.30 hPa55.00 %11.52 km/hWSW21.20 °C11.80 °C 
15:30:0020.90 °C1019.10 hPa55.00 %11.50 °C 
15:15:0021.00 °C1019.10 hPa55.00 %27.36 km/hNW22.00 °C11.60 °C 
15:00:0020.40 °C1019.00 hPa55.00 %11.10 °C 
14:45:0020.10 °C1018.90 hPa56.00 %11.10 °C 
14:30:0020.20 °C1019.00 hPa56.00 %11.10 °C 
14:15:0020.30 °C1018.80 hPa58.00 %11.80 °C 
14:00:0020.50 °C1018.70 hPa59.00 %12.20 °C 
13:45:0020.10 °C1018.50 hPa59.00 %11.80 °C 
13:30:0019.80 °C1018.60 hPa61.00 %12.10 °C 
13:15:0019.50 °C1018.50 hPa63.00 %12.30 °C 
13:00:0019.60 °C1018.70 hPa64.00 %12.60 °C 
12:45:0018.90 °C1018.60 hPa64.00 %11.90 °C 
12:30:0019.80 °C1018.80 hPa62.00 %12.30 °C 
12:15:0019.40 °C1018.70 hPa65.00 %12.70 °C 
12:00:0019.90 °C1018.70 hPa64.00 %12.90 °C 
11:45:0018.90 °C1018.70 hPa65.00 %12.20 °C 
11:30:0018.90 °C1018.90 hPa67.00 %12.60 °C 
11:15:0018.10 °C1018.80 hPa70.00 %12.50 °C 
11:00:0017.50 °C1018.80 hPa73.00 %12.60 °C 
10:45:0017.60 °C1018.90 hPa72.00 %12.50 °C 
10:30:0017.70 °C1018.90 hPa75.00 %13.20 °C 
10:15:0017.20 °C1018.60 hPa76.00 %12.90 °C 
10:00:0016.90 °C1018.50 hPa77.00 %3.96 km/hWNW16.90 °C12.80 °C 
09:45:0016.80 °C1018.50 hPa79.00 %13.10 °C 
09:30:0015.90 °C1018.40 hPa82.00 %12.80 °C 
09:15:0015.30 °C1018.40 hPa85.00 %12.80 °C 
09:00:0014.10 °C1018.00 hPa89.00 %12.30 °C 
08:45:0013.50 °C1018.00 hPa90.00 %11.90 °C 
08:30:0013.40 °C1017.80 hPa90.00 %11.80 °C 
08:15:0013.30 °C1017.70 hPa89.00 %11.50 °C 
08:00:0013.70 °C1017.50 hPa91.00 %12.30 °C 
07:45:0013.10 °C1017.40 hPa92.00 %11.80 °C 
07:30:0012.90 °C1017.20 hPa92.00 %11.60 °C 
07:15:0012.90 °C1017.00 hPa93.00 %11.80 °C 
07:00:0012.70 °C1017.00 hPa92.00 %11.40 °C 
06:45:0012.60 °C1016.70 hPa92.00 %11.30 °C 
06:30:0012.60 °C1016.60 hPa92.00 %11.30 °C 
06:15:0012.60 °C1016.60 hPa92.00 %11.30 °C 
06:00:0012.60 °C1016.50 hPa92.00 %11.30 °C 
05:45:0012.60 °C1016.40 hPa92.00 %11.30 °C 
05:30:0012.60 °C1016.10 hPa92.00 %11.30 °C 
05:15:0012.80 °C1016.10 hPa93.00 %11.70 °C 
05:00:0012.90 °C1016.00 hPa93.00 %11.80 °C 
04:45:0012.90 °C1016.00 hPa93.00 %11.80 °C 
04:30:0013.00 °C1015.80 hPa93.00 %11.90 °C 
04:15:0013.00 °C1015.80 hPa93.00 %11.90 °C 
04:00:0013.00 °C1015.60 hPa92.00 %11.70 °C 
03:45:0013.30 °C1015.50 hPa91.00 %11.90 °C 
03:30:0013.90 °C1015.40 hPa92.00 %12.60 °C 
03:15:0014.30 °C1015.20 hPa92.00 %13.00 °C 
03:00:0014.60 °C1015.00 hPa92.00 %13.30 °C 
02:45:0014.80 °C1014.70 hPa93.00 %13.70 °C 
02:30:0014.90 °C1014.50 hPa93.00 %13.80 °C 
02:15:0014.90 °C1014.50 hPa92.00 %13.60 °C 
02:00:0014.90 °C1014.30 hPa92.00 %13.60 °C 
01:45:0015.00 °C1014.20 hPa92.00 %13.70 °C 
01:30:0015.00 °C1014.20 hPa92.00 %13.70 °C 
01:15:0015.10 °C1014.10 hPa92.00 %13.80 °C 
01:00:0015.00 °C1014.00 hPa92.00 %13.70 °C 
00:45:0014.90 °C1014.10 hPa92.00 %13.60 °C 
00:30:0014.90 °C1014.00 hPa92.00 %13.60 °C 
00:15:0014.80 °C1013.90 hPa91.00 %13.30 °C 
00:00:0014.90 °C1013.90 hPa90.00 %13.30 °C 

Permanenter Link zu dieser Seite: Wetter im Erzgebirge am 06.08.2017
Performance-Info: Die Erstellung der Seite / Statistik(en) / Tabelle(n) erforderte 5 Datenbankserver-Abfrage(n) und dauerte 104 Millisekunden. (Dieser Messwert ist von der Gesamt-Auslastung des Servers abhängig.)
Erzgebirge - Wetter | Erzgebirge - Wetter (Mobilgeräte) | Komplette Klimadatenbank